createdAt,value
2022-12-10T08:10:49.001Z,38.73
2022-12-10T08:13:17.004Z,47.37
2022-12-10T08:15:45.040Z,48.33
2022-12-10T08:18:13.131Z,42.07
2022-12-10T08:20:41.203Z,46.67
2022-12-10T08:23:09.212Z,48.87
2022-12-10T08:25:40.597Z,50.73
2022-12-10T08:28:10.297Z,53.13
2022-12-10T08:30:38.341Z,51.87
2022-12-10T08:33:06.378Z,49.33
2022-12-10T08:35:34.389Z,46.93
2022-12-10T08:38:02.398Z,49.50
2022-12-10T08:40:30.680Z,47.17
2022-12-10T08:42:58.693Z,51.03
2022-12-10T08:45:29.453Z,53.80
2022-12-10T08:47:57.522Z,51.33
2022-12-10T08:50:25.544Z,44.97
2022-12-10T08:52:53.585Z,48.87
2022-12-10T08:55:21.591Z,46.03
2022-12-10T08:57:49.744Z,51.63
2022-12-10T09:00:19.766Z,51.90
2022-12-10T09:02:49.351Z,64.97
2022-12-10T09:05:17.713Z,44.97
2022-12-10T09:07:45.788Z,45.83
2022-12-10T09:10:13.890Z,56.20
2022-12-10T09:12:42.079Z,52.50
2022-12-10T09:15:11.929Z,53.13
2022-12-10T09:17:40.456Z,48.00
2022-12-10T09:20:10.873Z,55.00
2022-12-10T09:22:39.401Z,61.53
2022-12-10T09:25:10.910Z,69.07
2022-12-10T09:27:39.145Z,63.60
2022-12-10T09:30:08.460Z,77.63
2022-12-10T09:32:36.656Z,67.47
2022-12-10T09:35:05.412Z,73.83
2022-12-10T09:37:34.814Z,67.23
2022-12-10T09:40:04.296Z,71.93
2022-12-10T09:42:42.757Z,72.43
2022-12-10T09:45:18.413Z,67.57
2022-12-10T09:47:54.954Z,64.17
2022-12-10T09:50:28.620Z,57.93
2022-12-10T09:53:01.102Z,57.60
2022-12-10T09:55:37.269Z,48.43
2022-12-10T09:58:07.492Z,49.37
2022-12-10T10:00:39.384Z,51.90
2022-12-10T10:03:08.449Z,55.07
2022-12-10T10:05:41.120Z,54.43
2022-12-10T10:08:19.391Z,52.67
2022-12-10T10:10:48.222Z,49.43
2022-12-10T10:13:23.568Z,54.37
2022-12-10T10:15:52.517Z,63.83
2022-12-10T10:18:30.502Z,63.27
2022-12-10T10:20:59.096Z,50.57
2022-12-10T10:23:28.648Z,49.03
2022-12-10T10:25:56.692Z,46.40
2022-12-10T10:28:25.331Z,52.50
2022-12-10T10:30:55.565Z,48.63
2022-12-10T10:33:23.846Z,48.93
2022-12-10T10:35:56.424Z,49.53
2022-12-10T10:38:26.259Z,52.33
2022-12-10T10:40:57.654Z,57.73
2022-12-10T10:43:28.279Z,47.53
2022-12-10T10:46:00.357Z,48.03
2022-12-10T10:48:29.921Z,48.83
2022-12-10T10:51:09.283Z,42.93
2022-12-10T10:53:44.697Z,50.47
2022-12-10T10:56:21.649Z,47.47
2022-12-10T10:58:55.049Z,46.03
2022-12-10T11:01:25.447Z,48.73
2022-12-10T11:03:57.639Z,41.00
2022-12-10T11:06:26.397Z,42.83
2022-12-10T11:08:58.616Z,46.43
2022-12-10T11:11:36.998Z,45.23
2022-12-10T11:14:25.965Z,57.80
2022-12-10T11:17:03.259Z,43.43
2022-12-10T11:19:31.418Z,40.97
2022-12-10T11:22:18.287Z,32.67
2022-12-10T11:24:48.660Z,32.60
2022-12-10T11:27:27.365Z,26.50
2022-12-10T11:30:02.934Z,30.90
2022-12-10T11:32:46.209Z,26.87
2022-12-10T11:35:18.887Z,29.80
2022-12-10T11:37:55.074Z,25.83
2022-12-10T11:40:46.710Z,28.67
2022-12-10T11:43:44.555Z,27.67
2022-12-10T11:46:35.663Z,24.77
2022-12-10T11:49:18.853Z,27.33
2022-12-10T11:51:52.376Z,24.67
2022-12-10T11:54:33.000Z,25.90
2022-12-10T11:57:08.209Z,25.97
2022-12-10T12:00:04.154Z,25.73
2022-12-10T12:02:50.158Z,25.87
2022-12-10T12:05:35.164Z,25.73
2022-12-10T12:08:14.257Z,26.80
2022-12-10T12:11:03.927Z,24.17
2022-12-10T12:13:37.745Z,24.67
2022-12-10T12:16:13.353Z,25.33
2022-12-10T12:18:48.189Z,23.57
2022-12-10T12:21:18.443Z,22.57
2022-12-10T12:23:52.420Z,23.67
2022-12-10T12:26:26.719Z,23.50
2022-12-10T12:28:59.109Z,24.80
2022-12-10T12:31:38.984Z,28.50
2022-12-10T12:34:15.076Z,26.73
2022-12-10T12:36:43.815Z,26.60
2022-12-10T12:39:22.008Z,26.23
2022-12-10T12:42:01.588Z,26.13
2022-12-10T12:44:36.487Z,28.73
2022-12-10T12:47:21.601Z,30.83
2022-12-10T12:49:51.129Z,27.50
2022-12-10T12:52:33.390Z,29.67
2022-12-10T12:55:06.064Z,28.70
2022-12-10T12:57:43.372Z,30.07
2022-12-10T13:00:19.211Z,27.33
2022-12-10T13:03:01.107Z,28.97
2022-12-10T13:05:34.392Z,28.50
2022-12-10T13:08:29.999Z,28.43
2022-12-10T13:11:17.898Z,25.60
2022-12-10T13:14:19.185Z,27.23
2022-12-10T13:17:01.515Z,25.43
2022-12-10T13:19:32.686Z,29.67
2022-12-10T13:22:12.670Z,31.07
2022-12-10T13:25:13.485Z,23.67
2022-12-10T13:27:42.661Z,26.77
2022-12-10T13:30:36.558Z,29.93
2022-12-10T13:33:17.318Z,27.00
2022-12-10T13:35:57.051Z,26.20
2022-12-10T13:38:26.481Z,21.13
2022-12-10T13:41:32.708Z,26.27
2022-12-10T13:44:25.496Z,21.43
2022-12-10T13:46:57.172Z,25.83
2022-12-10T13:49:27.062Z,23.00
2022-12-10T13:52:03.280Z,22.93
2022-12-10T13:55:20.957Z,26.43
2022-12-10T13:58:05.667Z,26.87
2022-12-10T14:00:40.768Z,30.00
2022-12-10T14:03:39.550Z,24.17
2022-12-10T14:06:16.073Z,24.57
2022-12-10T14:08:59.045Z,25.13
2022-12-10T14:11:37.065Z,21.53
2022-12-10T14:14:08.875Z,22.87
2022-12-10T14:16:38.054Z,22.27
2022-12-10T14:19:08.773Z,23.53
2022-12-10T14:21:39.818Z,26.83
2022-12-10T14:24:28.776Z,24.03
2022-12-10T14:27:00.800Z,21.57
2022-12-10T14:29:29.688Z,21.93
2022-12-10T14:31:58.497Z,26.70
2022-12-10T14:34:30.167Z,22.53
2022-12-10T14:37:00.472Z,23.87
2022-12-10T14:39:32.369Z,27.93
2022-12-10T14:42:03.296Z,29.57
2022-12-10T14:44:33.451Z,28.57
2022-12-10T14:47:07.236Z,28.57
2022-12-10T14:49:43.413Z,33.53
2022-12-10T14:52:14.219Z,30.23
2022-12-10T14:54:43.870Z,28.73
2022-12-10T14:57:18.261Z,33.23
2022-12-10T14:59:51.269Z,29.73
2022-12-10T15:02:24.775Z,31.03
